메인 페이지
METAR-TAF:

METAR-TAF

공항 :

Kapolei, 하와이, 미국

위도: 21-18-30N, 경도: 158-04-05W, 고도: 10m

현재 날씨관측

예보는 24분 전, 16:53시(UTC)에 발표되었습니다.
북동4kt
온도 19°C
습도 78%
기압 1021 hPa
시정: 16.1km
맑음

METAR: PHJR 021653Z 04004KT 10SM CLR 19/15 A3015 RMK AO2 SLP216 T01890150

시각: 07:17 (17:17 UTC)

예보

예보는 5 시간 47분 전, 11:30시(UTC)에 발표되었습니다.
예보 대상 시간: 02일 12시부터 03일 12시까지 (UTC)
북동5kt
시정: 10km
고도 3500ft 상공 구름 조금
고도 5000ft 상공 구름 보통
02일 2000시부터 (UTC)
9kt
시정: 10km
고도 5000ft 상공 구름 조금
03일 0500시부터 (UTC)
북동5kt
시정: 10km
고도 3500ft 상공 구름 조금
고도 5000ft 상공 구름 보통

TAF: PHJR 021130Z 0212/0312 05005KT P6SM FEW035 SCT050 FM022000 08009KT P6SM FEW050 FM030500 05005KT P6SM FEW035 SCT050

4,000개 이상의 공항 관측 자료 및 예보 (METAR 및 TAF 보고).

지도상에서 검색 가능한 기상관측소가 노란 점과 빨간 점으로 표시되어 있습니다.

기상관측소 명을 보려면 표시 위로 마우스를 이동하세요.

날씨 관측과 예보를 보려면 클릭하세요.

지도 변경 : 확대하려면 엑스 표시가 있는 녹색 버튼, 축소하려면 빼기 표시가 있는 녹색 버튼, 다음 페이지의 지도를 보려면 녹색 화살표를 클릭하세요.


METAR-TAF: